Rock Falls, Nebraska
Current Conditions -  °F | °C
As of 3:35 PM on Wednesday 26 Nov 2014 (Local Time) from KHDE Reporting Station
Scattered Clouds Scattered Clouds  
Wind Chill: 24°   Ceiling: Unl
Heat Index: 33°   Visibility: 10mi
Dew Point: 17°   Wind: 12mph
Humidity: 53%   Direction: 350°N
Pressure: 30.3"   Gusts: NA
Location:  40.3923°N, 99.5355°W
Report Text: KHDE 262135Z AUTO 35010KT 10SM SCT100 SCT120 00/M08 A3030 RMK AO2 T00041082
Loading
Personal Weather Stations






























Interactive Weather Map New forecast layout! Learn more

10-Day Weather Forecast

Advertisements
Track Severe Weather on mobile